createdAt,value
2023-01-19T00:15:13.778Z,13.75
2023-01-19T00:23:36.168Z,15.10
2023-01-19T00:40:19.886Z,17.87
2023-01-19T01:05:07.666Z,14.83
2023-01-19T01:09:32.247Z,17.42
2023-01-19T01:13:53.607Z,16.55
2023-01-19T01:22:06.557Z,18.03
2023-01-19T01:26:18.175Z,20.17
2023-01-19T01:53:10.091Z,25.70
2023-01-19T02:18:24.016Z,19.67
2023-01-19T02:48:21.441Z,9.17
2023-01-19T02:57:10.666Z,8.43
2023-01-19T03:06:21.004Z,8.73
2023-01-19T03:11:18.207Z,10.10
2023-01-19T03:20:07.627Z,7.97
2023-01-19T03:24:11.758Z,5.80
2023-01-19T03:33:11.751Z,7.57
2023-01-19T03:51:00.954Z,6.38
2023-01-19T03:55:19.319Z,7.10
2023-01-19T04:21:11.232Z,5.77
2023-01-19T04:25:17.770Z,6.88
2023-01-19T04:50:11.415Z,11.15
2023-01-19T04:58:22.718Z,7.43
2023-01-19T05:06:09.899Z,3.78
2023-01-19T05:10:07.683Z,5.30
2023-01-19T05:14:45.631Z,5.00
2023-01-19T05:23:25.387Z,8.07
2023-01-19T05:35:12.918Z,8.73
2023-01-19T05:38:34.657Z,12.93
2023-01-19T05:41:53.544Z,10.10
2023-01-19T05:45:03.545Z,11.90
2023-01-19T05:48:12.254Z,10.90
2023-01-19T05:51:26.255Z,9.75
2023-01-19T05:54:33.813Z,16.97
2023-01-19T05:57:46.455Z,13.47
2023-01-19T06:01:06.707Z,13.68
2023-01-19T06:04:15.295Z,16.45
2023-01-19T06:07:20.502Z,20.73
2023-01-19T06:10:24.909Z,17.60
2023-01-19T06:13:30.555Z,23.13
2023-01-19T06:16:36.092Z,21.23
2023-01-19T06:19:43.440Z,20.58
2023-01-19T06:22:49.936Z,28.63
2023-01-19T06:25:54.428Z,23.77
2023-01-19T06:29:00.170Z,22.00
2023-01-19T06:32:04.568Z,21.80
2023-01-19T06:35:08.324Z,22.98
2023-01-19T06:38:14.299Z,18.52
2023-01-19T06:41:19.092Z,21.40
2023-01-19T06:44:23.500Z,23.13
2023-01-19T06:47:28.538Z,19.27
2023-01-19T06:50:36.884Z,18.13
2023-01-19T06:53:42.667Z,19.63
2023-01-19T06:56:47.096Z,20.20
2023-01-19T06:59:51.409Z,21.83
2023-01-19T07:02:59.993Z,16.83
2023-01-19T07:06:11.065Z,23.27
2023-01-19T07:09:21.595Z,18.55
2023-01-19T07:12:31.045Z,22.77
2023-01-19T07:15:38.025Z,23.00
2023-01-19T07:18:44.404Z,21.17
2023-01-19T07:21:52.178Z,24.70
2023-01-19T07:25:01.122Z,32.78
2023-01-19T07:28:06.026Z,24.37
2023-01-19T07:31:09.855Z,21.43
2023-01-19T07:34:13.824Z,22.65
2023-01-19T07:37:22.917Z,22.50
2023-01-19T07:40:33.217Z,21.88
2023-01-19T07:43:37.758Z,23.97
2023-01-19T07:46:44.208Z,18.87
2023-01-19T07:49:48.550Z,20.42
2023-01-19T07:52:54.093Z,23.45
2023-01-19T07:56:00.650Z,15.35
2023-01-19T07:59:04.793Z,20.17
2023-01-19T08:02:10.977Z,17.67
2023-01-19T08:05:16.388Z,18.48
2023-01-19T08:08:21.492Z,21.30
2023-01-19T08:11:30.114Z,20.65
2023-01-19T08:14:38.544Z,18.50
2023-01-19T08:17:46.250Z,17.27
2023-01-19T08:20:51.074Z,16.58
2023-01-19T08:24:03.565Z,14.32
2023-01-19T08:27:13.860Z,23.65
2023-01-19T08:30:25.788Z,21.63
2023-01-19T08:33:35.448Z,21.13
2023-01-19T08:36:47.320Z,22.40
2023-01-19T08:39:56.788Z,20.90
2023-01-19T08:43:05.682Z,23.63
2023-01-19T08:46:10.852Z,23.27
2023-01-19T08:49:20.505Z,19.97
2023-01-19T08:52:27.143Z,17.35
2023-01-19T08:55:31.741Z,18.23
2023-01-19T08:58:35.811Z,14.70
2023-01-19T09:01:41.920Z,16.10
2023-01-19T09:04:48.601Z,15.93
2023-01-19T09:07:55.873Z,19.92
2023-01-19T09:11:12.889Z,17.70
2023-01-19T09:14:23.185Z,19.13
2023-01-19T09:17:41.551Z,20.70
2023-01-19T09:20:51.041Z,13.83
2023-01-19T09:23:59.979Z,17.40
2023-01-19T09:27:11.844Z,19.98
2023-01-19T09:30:30.245Z,21.10
2023-01-19T09:33:41.539Z,24.70
2023-01-19T09:36:48.127Z,21.07
2023-01-19T09:39:54.167Z,20.10
2023-01-19T09:43:21.517Z,20.05
2023-01-19T09:46:31.792Z,23.30
2023-01-19T09:49:39.629Z,23.10
2023-01-19T09:52:49.110Z,22.27
2023-01-19T09:55:54.128Z,19.48
2023-01-19T09:58:59.014Z,19.50
2023-01-19T10:03:02.289Z,31.13
2023-01-19T10:06:10.365Z,18.53
2023-01-19T10:09:32.277Z,26.40
2023-01-19T10:12:38.968Z,20.17
2023-01-19T10:16:12.562Z,27.08
2023-01-19T10:19:30.770Z,26.88
2023-01-19T10:22:35.016Z,24.23
2023-01-19T10:25:40.018Z,24.90
2023-01-19T10:28:44.341Z,23.10
2023-01-19T10:31:49.250Z,25.90
2023-01-19T10:34:55.673Z,24.65
2023-01-19T10:38:03.077Z,29.87
2023-01-19T10:41:12.739Z,30.70
2023-01-19T10:44:35.305Z,30.17
2023-01-19T10:47:40.446Z,30.75
2023-01-19T10:50:44.114Z,26.15
2023-01-19T10:54:05.218Z,30.20
2023-01-19T10:57:10.701Z,26.47
2023-01-19T11:00:44.676Z,21.30
2023-01-19T11:03:51.320Z,20.70
2023-01-19T11:07:13.946Z,22.10
2023-01-19T11:10:19.367Z,19.43
2023-01-19T11:13:26.247Z,20.40
2023-01-19T11:16:34.052Z,24.75
2023-01-19T11:19:41.695Z,19.10
2023-01-19T11:22:46.313Z,23.63
2023-01-19T11:25:54.020Z,24.40
2023-01-19T11:29:00.451Z,19.40
2023-01-19T11:32:13.265Z,23.48
2023-01-19T11:35:36.380Z,27.98
2023-01-19T11:38:47.515Z,23.15
2023-01-19T11:41:57.070Z,19.87
2023-01-19T11:45:16.187Z,17.47
2023-01-19T11:48:40.547Z,15.98
2023-01-19T11:52:16.406Z,17.23
2023-01-19T11:55:57.118Z,21.92
2023-01-19T11:59:03.338Z,29.30
2023-01-19T12:02:24.420Z,17.50
2023-01-19T12:05:35.345Z,17.77
2023-01-19T12:09:10.806Z,19.75
2023-01-19T12:12:40.413Z,14.75
2023-01-19T12:15:45.038Z,13.27
2023-01-19T12:19:14.459Z,22.47
2023-01-19T12:22:18.666Z,19.88
2023-01-19T12:25:31.815Z,18.55
2023-01-19T12:28:40.041Z,11.85
2023-01-19T12:31:49.915Z,18.40
2023-01-19T12:35:00.059Z,18.50
2023-01-19T12:38:39.690Z,22.08
2023-01-19T12:41:49.939Z,11.73
2023-01-19T12:45:16.501Z,14.38
2023-01-19T12:48:32.226Z,16.37
2023-01-19T12:51:37.052Z,15.03
2023-01-19T12:54:53.367Z,10.40
2023-01-19T12:58:04.459Z,12.02
2023-01-19T13:01:20.957Z,12.48
2023-01-19T13:04:38.123Z,11.73
2023-01-19T13:08:09.136Z,12.27
2023-01-19T13:11:20.775Z,16.65
2023-01-19T13:14:38.896Z,16.15
2023-01-19T13:17:53.956Z,13.95
2023-01-19T13:21:10.560Z,12.43
2023-01-19T13:24:26.411Z,17.67
2023-01-19T13:27:31.815Z,15.93
2023-01-19T13:30:38.698Z,22.20
2023-01-19T13:34:00.569Z,17.05
2023-01-19T13:37:08.667Z,15.17
2023-01-19T13:40:20.944Z,9.23
2023-01-19T13:43:40.276Z,11.70
2023-01-19T13:46:48.134Z,12.20
2023-01-19T13:49:59.241Z,9.63
2023-01-19T13:53:05.449Z,11.67
2023-01-19T13:56:24.856Z,14.07
2023-01-19T13:59:30.001Z,9.13
2023-01-19T14:02:35.876Z,11.13
2023-01-19T14:05:44.102Z,12.40
2023-01-19T14:09:06.561Z,12.27
2023-01-19T14:12:14.928Z,9.80
2023-01-19T14:15:18.973Z,11.13
2023-01-19T14:18:26.076Z,8.60
2023-01-19T14:22:01.919Z,12.15
2023-01-19T14:25:35.061Z,13.20
2023-01-19T14:28:50.943Z,12.77
2023-01-19T14:32:18.793Z,17.00
2023-01-19T14:35:26.469Z,17.33
2023-01-19T14:38:30.998Z,11.07
2023-01-19T14:41:50.130Z,13.00
2023-01-19T14:44:56.272Z,18.60
2023-01-19T14:48:02.076Z,16.27
2023-01-19T14:51:07.221Z,12.63
2023-01-19T14:54:22.416Z,15.65
2023-01-19T14:57:31.043Z,19.83
2023-01-19T15:00:47.288Z,14.37
2023-01-19T15:04:11.633Z,19.52
2023-01-19T15:07:39.648Z,24.55
2023-01-19T15:10:56.590Z,16.20
2023-01-19T15:14:11.340Z,16.40
2023-01-19T15:17:31.654Z,17.20
2023-01-19T15:21:04.577Z,20.60
2023-01-19T15:24:31.219Z,20.05
2023-01-19T15:27:56.655Z,16.45
2023-01-19T15:31:15.450Z,13.30
2023-01-19T15:34:51.058Z,15.40
2023-01-19T15:38:16.438Z,20.80
2023-01-19T15:41:46.266Z,20.17
2023-01-19T15:45:50.357Z,21.58
2023-01-19T15:49:09.609Z,14.53
2023-01-19T15:52:50.462Z,19.97
2023-01-19T15:56:15.745Z,18.88
2023-01-19T16:00:03.625Z,24.10
2023-01-19T16:03:30.279Z,19.90
2023-01-19T16:07:27.747Z,23.50
2023-01-19T16:11:31.178Z,20.60
2023-01-19T16:15:07.841Z,24.27
2023-01-19T16:18:46.903Z,19.38
2023-01-19T16:22:07.095Z,18.20
2023-01-19T16:25:19.349Z,19.23
2023-01-19T16:28:42.347Z,21.27
2023-01-19T16:31:52.221Z,25.30
2023-01-19T16:35:17.742Z,20.73
2023-01-19T16:38:30.092Z,22.08
2023-01-19T16:42:06.160Z,17.83
2023-01-19T16:45:26.120Z,25.63
2023-01-19T16:48:55.720Z,21.15
2023-01-19T16:52:17.590Z,30.63
2023-01-19T16:55:43.200Z,29.58
2023-01-19T16:59:13.437Z,31.10
2023-01-19T17:03:04.199Z,36.57
2023-01-19T17:06:28.383Z,22.38
2023-01-19T17:10:07.911Z,19.25
2023-01-19T17:13:35.141Z,24.50
2023-01-19T17:17:05.749Z,24.37
2023-01-19T17:20:34.470Z,22.47
2023-01-19T17:24:07.347Z,12.43
2023-01-19T17:27:43.647Z,16.60
2023-01-19T17:30:54.956Z,17.02
2023-01-19T17:34:31.732Z,18.30
2023-01-19T17:38:19.046Z,18.20
2023-01-19T17:42:13.614Z,22.70
2023-01-19T17:46:05.282Z,19.38
2023-01-19T17:49:54.045Z,17.50
2023-01-19T17:53:25.308Z,23.43
2023-01-19T17:57:11.500Z,23.13
2023-01-19T18:01:23.484Z,16.98
2023-01-19T18:10:04.945Z,15.43
2023-01-19T18:17:39.679Z,15.67
2023-01-19T18:21:44.675Z,21.05
2023-01-19T18:25:36.541Z,22.15
2023-01-19T18:58:07.374Z,20.77
2023-01-19T19:02:21.839Z,14.50
2023-01-19T19:06:27.825Z,16.33
2023-01-19T19:15:18.900Z,16.13
2023-01-19T19:37:11.054Z,13.23
2023-01-19T19:41:51.826Z,20.70
2023-01-19T19:50:10.496Z,10.88
2023-01-19T20:02:41.230Z,14.70
2023-01-19T20:10:48.429Z,15.25
2023-01-19T20:19:05.297Z,18.10
2023-01-19T20:23:05.569Z,13.97
2023-01-19T20:36:22.245Z,43.08
2023-01-19T20:40:24.965Z,21.13
2023-01-19T20:49:07.586Z,22.27
2023-01-19T20:57:54.639Z,22.05
2023-01-19T21:06:27.798Z,7.90
2023-01-19T21:10:38.091Z,9.02
2023-01-19T21:19:07.434Z,11.15
2023-01-19T21:23:25.758Z,16.30
2023-01-19T21:27:27.466Z,13.23
2023-01-19T21:47:27.257Z,13.10
2023-01-19T21:56:23.479Z,11.52
2023-01-19T22:04:25.507Z,23.03
2023-01-19T22:08:17.670Z,25.38
2023-01-19T22:42:08.424Z,24.38
2023-01-19T22:46:08.591Z,27.97
2023-01-19T22:50:31.335Z,21.45
2023-01-19T22:55:00.068Z,19.52
2023-01-19T23:07:10.244Z,23.27
2023-01-19T23:23:25.736Z,13.13
2023-01-19T23:40:07.714Z,20.63
2023-01-19T23:44:17.796Z,17.67
2023-01-19T23:48:22.700Z,19.23
2023-01-19T23:57:08.249Z,31.00
